sensor_id;sensor_type;location;lat;lon;timestamp;P1;durP1;ratioP1;P2;durP2;ratioP2
21786;SDS011;11055;50.870;4.316;2023-08-24T00:00:42;7.45;;;5.30;;
21786;SDS011;11055;50.870;4.316;2023-08-24T00:03:08;11.90;;;5.97;;
21786;SDS011;11055;50.870;4.316;2023-08-24T00:05:34;9.23;;;5.10;;
21786;SDS011;11055;50.870;4.316;2023-08-24T00:08:03;9.60;;;5.47;;
21786;SDS011;11055;50.870;4.316;2023-08-24T00:10:29;8.38;;;5.45;;
21786;SDS011;11055;50.870;4.316;2023-08-24T00:12:55;11.00;;;6.20;;
21786;SDS011;11055;50.870;4.316;2023-08-24T00:15:21;9.48;;;5.53;;
21786;SDS011;11055;50.870;4.316;2023-08-24T00:17:47;8.75;;;5.40;;
21786;SDS011;11055;50.870;4.316;2023-08-24T00:20:12;12.30;;;5.40;;
21786;SDS011;11055;50.870;4.316;2023-08-24T00:22:38;7.28;;;5.53;;
21786;SDS011;11055;50.870;4.316;2023-08-24T00:25:04;7.22;;;5.50;;
21786;SDS011;11055;50.870;4.316;2023-08-24T00:27:34;9.30;;;5.30;;
21786;SDS011;11055;50.870;4.316;2023-08-24T00:30:01;8.10;;;5.78;;
21786;SDS011;11055;50.870;4.316;2023-08-24T00:32:29;9.00;;;5.13;;
21786;SDS011;11055;50.870;4.316;2023-08-24T00:34:58;7.13;;;5.28;;
21786;SDS011;11055;50.870;4.316;2023-08-24T00:37:24;11.10;;;5.40;;
21786;SDS011;11055;50.870;4.316;2023-08-24T00:39:49;7.43;;;5.30;;
21786;SDS011;11055;50.870;4.316;2023-08-24T00:42:15;8.25;;;5.60;;
21786;SDS011;11055;50.870;4.316;2023-08-24T00:44:41;10.13;;;5.90;;
21786;SDS011;11055;50.870;4.316;2023-08-24T00:47:07;11.05;;;5.50;;
21786;SDS011;11055;50.870;4.316;2023-08-24T00:49:33;10.30;;;5.65;;
21786;SDS011;11055;50.870;4.316;2023-08-24T00:51:59;7.88;;;5.75;;
21786;SDS011;11055;50.870;4.316;2023-08-24T00:54:25;7.40;;;5.55;;
21786;SDS011;11055;50.870;4.316;2023-08-24T00:56:51;9.60;;;5.38;;
21786;SDS011;11055;50.870;4.316;2023-08-24T00:59:19;9.02;;;5.32;;
21786;SDS011;11055;50.870;4.316;2023-08-24T01:01:45;8.23;;;5.60;;
21786;SDS011;11055;50.870;4.316;2023-08-24T01:04:12;10.10;;;5.97;;
21786;SDS011;11055;50.870;4.316;2023-08-24T01:06:38;8.93;;;5.43;;
21786;SDS011;11055;50.870;4.316;2023-08-24T01:09:04;8.23;;;5.45;;
21786;SDS011;11055;50.870;4.316;2023-08-24T01:14:15;9.38;;;5.20;;
21786;SDS011;11055;50.870;4.316;2023-08-24T01:16:53;10.10;;;5.68;;
21786;SDS011;11055;50.870;4.316;2023-08-24T01:19:42;10.52;;;5.68;;
21786;SDS011;11055;50.870;4.316;2023-08-24T01:22:16;7.63;;;5.25;;
21786;SDS011;11055;50.870;4.316;2023-08-24T01:25:11;7.47;;;5.63;;
21786;SDS011;11055;50.870;4.316;2023-08-24T01:27:42;8.38;;;5.93;;
21786;SDS011;11055;50.870;4.316;2023-08-24T01:30:09;12.57;;;6.18;;
21786;SDS011;11055;50.870;4.316;2023-08-24T01:32:35;11.77;;;5.75;;
21786;SDS011;11055;50.870;4.316;2023-08-24T01:35:01;8.80;;;5.80;;
21786;SDS011;11055;50.870;4.316;2023-08-24T01:37:30;10.90;;;5.30;;
21786;SDS011;11055;50.870;4.316;2023-08-24T01:45:24;11.23;;;5.78;;
21786;SDS011;11055;50.870;4.316;2023-08-24T01:47:54;10.73;;;6.35;;
21786;SDS011;11055;50.870;4.316;2023-08-24T01:50:21;9.23;;;6.13;;
21786;SDS011;11055;50.870;4.316;2023-08-24T01:52:48;8.48;;;5.95;;
21786;SDS011;11055;50.870;4.316;2023-08-24T01:55:17;10.30;;;5.63;;
21786;SDS011;11055;50.870;4.316;2023-08-24T01:57:43;11.23;;;5.75;;
21786;SDS011;11055;50.870;4.316;2023-08-24T02:00:09;7.13;;;5.88;;
21786;SDS011;11055;50.870;4.316;2023-08-24T02:02:35;8.98;;;5.50;;
21786;SDS011;11055;50.870;4.316;2023-08-24T02:05:01;8.10;;;6.00;;
21786;SDS011;11055;50.870;4.316;2023-08-24T02:07:27;14.70;;;6.57;;
21786;SDS011;11055;50.870;4.316;2023-08-24T02:09:54;13.45;;;6.80;;
21786;SDS011;11055;50.870;4.316;2023-08-24T02:12:19;10.65;;;6.05;;
21786;SDS011;11055;50.870;4.316;2023-08-24T02:14:45;12.25;;;6.50;;
21786;SDS011;11055;50.870;4.316;2023-08-24T02:17:11;15.18;;;6.38;;
21786;SDS011;11055;50.870;4.316;2023-08-24T02:19:36;11.57;;;6.32;;
21786;SDS011;11055;50.870;4.316;2023-08-24T02:22:02;9.02;;;6.88;;
21786;SDS011;11055;50.870;4.316;2023-08-24T02:24:28;8.95;;;6.65;;
21786;SDS011;11055;50.870;4.316;2023-08-24T02:26:53;8.55;;;6.30;;
21786;SDS011;11055;50.870;4.316;2023-08-24T02:29:19;11.05;;;6.78;;
21786;SDS011;11055;50.870;4.316;2023-08-24T02:31:45;10.93;;;6.72;;
21786;SDS011;11055;50.870;4.316;2023-08-24T02:34:10;8.30;;;6.40;;
21786;SDS011;11055;50.870;4.316;2023-08-24T02:36:36;10.85;;;6.85;;
21786;SDS011;11055;50.870;4.316;2023-08-24T02:39:02;13.70;;;6.30;;
21786;SDS011;11055;50.870;4.316;2023-08-24T02:41:27;11.98;;;6.93;;
21786;SDS011;11055;50.870;4.316;2023-08-24T02:43:53;11.30;;;6.30;;
21786;SDS011;11055;50.870;4.316;2023-08-24T02:46:20;7.38;;;6.63;;
21786;SDS011;11055;50.870;4.316;2023-08-24T02:48:46;10.05;;;6.53;;
21786;SDS011;11055;50.870;4.316;2023-08-24T02:51:12;11.23;;;7.18;;
21786;SDS011;11055;50.870;4.316;2023-08-24T02:53:38;7.88;;;6.22;;
21786;SDS011;11055;50.870;4.316;2023-08-24T02:56:04;10.52;;;6.82;;
21786;SDS011;11055;50.870;4.316;2023-08-24T02:58:30;8.77;;;6.95;;
21786;SDS011;11055;50.870;4.316;2023-08-24T03:00:56;8.73;;;6.63;;
21786;SDS011;11055;50.870;4.316;2023-08-24T03:03:23;10.68;;;6.70;;
21786;SDS011;11055;50.870;4.316;2023-08-24T03:05:59;11.18;;;6.80;;
21786;SDS011;11055;50.870;4.316;2023-08-24T03:08:30;9.30;;;6.50;;
21786;SDS011;11055;50.870;4.316;2023-08-24T03:10:56;7.47;;;6.43;;
21786;SDS011;11055;50.870;4.316;2023-08-24T03:13:23;8.00;;;6.38;;
21786;SDS011;11055;50.870;4.316;2023-08-24T03:15:48;10.20;;;6.30;;
21786;SDS011;11055;50.870;4.316;2023-08-24T03:18:15;8.52;;;6.78;;
21786;SDS011;11055;50.870;4.316;2023-08-24T03:20:41;9.80;;;6.63;;
21786;SDS011;11055;50.870;4.316;2023-08-24T03:23:09;8.48;;;6.43;;
21786;SDS011;11055;50.870;4.316;2023-08-24T03:25:35;10.00;;;6.60;;
21786;SDS011;11055;50.870;4.316;2023-08-24T03:28:02;9.50;;;7.18;;
21786;SDS011;11055;50.870;4.316;2023-08-24T03:30:29;7.57;;;6.32;;
21786;SDS011;11055;50.870;4.316;2023-08-24T03:32:54;13.23;;;6.45;;
21786;SDS011;11055;50.870;4.316;2023-08-24T03:35:20;7.93;;;6.03;;
21786;SDS011;11055;50.870;4.316;2023-08-24T03:37:45;7.18;;;6.32;;
21786;SDS011;11055;50.870;4.316;2023-08-24T03:40:11;10.23;;;6.20;;
21786;SDS011;11055;50.870;4.316;2023-08-24T03:42:37;10.80;;;6.38;;
21786;SDS011;11055;50.870;4.316;2023-08-24T03:45:03;7.38;;;6.53;;
21786;SDS011;11055;50.870;4.316;2023-08-24T03:47:29;8.25;;;6.43;;
21786;SDS011;11055;50.870;4.316;2023-08-24T03:49:55;8.98;;;6.03;;
21786;SDS011;11055;50.870;4.316;2023-08-24T03:52:21;9.65;;;6.15;;
21786;SDS011;11055;50.870;4.316;2023-08-24T03:54:46;8.68;;;6.47;;
21786;SDS011;11055;50.870;4.316;2023-08-24T03:57:12;10.25;;;6.45;;
21786;SDS011;11055;50.870;4.316;2023-08-24T03:59:37;8.40;;;6.20;;
21786;SDS011;11055;50.870;4.316;2023-08-24T04:02:03;11.82;;;6.85;;
21786;SDS011;11055;50.870;4.316;2023-08-24T04:04:32;8.48;;;6.68;;
21786;SDS011;11055;50.870;4.316;2023-08-24T04:06:58;8.45;;;6.30;;
21786;SDS011;11055;50.870;4.316;2023-08-24T04:09:23;10.10;;;6.93;;
21786;SDS011;11055;50.870;4.316;2023-08-24T04:11:49;7.28;;;6.55;;
21786;SDS011;11055;50.870;4.316;2023-08-24T04:14:15;11.77;;;6.57;;
21786;SDS011;11055;50.870;4.316;2023-08-24T04:16:40;9.55;;;7.10;;
21786;SDS011;11055;50.870;4.316;2023-08-24T04:19:07;10.55;;;7.22;;
21786;SDS011;11055;50.870;4.316;2023-08-24T04:21:33;7.93;;;6.97;;
21786;SDS011;11055;50.870;4.316;2023-08-24T04:23:59;10.25;;;6.95;;
21786;SDS011;11055;50.870;4.316;2023-08-24T04:26:24;10.43;;;7.15;;
21786;SDS011;11055;50.870;4.316;2023-08-24T04:28:50;10.32;;;6.95;;
21786;SDS011;11055;50.870;4.316;2023-08-24T04:31:16;12.02;;;8.30;;
21786;SDS011;11055;50.870;4.316;2023-08-24T04:33:41;9.73;;;6.53;;
21786;SDS011;11055;50.870;4.316;2023-08-24T04:36:07;14.13;;;6.97;;
21786;SDS011;11055;50.870;4.316;2023-08-24T04:38:33;8.35;;;6.88;;
21786;SDS011;11055;50.870;4.316;2023-08-24T04:40:59;10.23;;;6.97;;
21786;SDS011;11055;50.870;4.316;2023-08-24T04:43:25;10.98;;;6.95;;
21786;SDS011;11055;50.870;4.316;2023-08-24T04:45:54;10.50;;;7.03;;
21786;SDS011;11055;50.870;4.316;2023-08-24T04:48:20;9.20;;;6.75;;
21786;SDS011;11055;50.870;4.316;2023-08-24T04:50:47;11.35;;;7.10;;
21786;SDS011;11055;50.870;4.316;2023-08-24T04:53:15;8.27;;;6.95;;
21786;SDS011;11055;50.870;4.316;2023-08-24T04:55:43;9.52;;;6.70;;
21786;SDS011;11055;50.870;4.316;2023-08-24T04:58:09;10.50;;;6.85;;
21786;SDS011;11055;50.870;4.316;2023-08-24T05:00:36;11.00;;;6.70;;
21786;SDS011;11055;50.870;4.316;2023-08-24T05:03:05;12.35;;;7.80;;
21786;SDS011;11055;50.870;4.316;2023-08-24T05:05:32;8.00;;;6.40;;
21786;SDS011;11055;50.870;4.316;2023-08-24T05:07:59;11.40;;;7.28;;
21786;SDS011;11055;50.870;4.316;2023-08-24T05:10:26;9.02;;;7.05;;
21786;SDS011;11055;50.870;4.316;2023-08-24T05:12:55;10.48;;;7.40;;
21786;SDS011;11055;50.870;4.316;2023-08-24T05:15:21;10.15;;;6.85;;
21786;SDS011;11055;50.870;4.316;2023-08-24T05:17:47;14.65;;;7.45;;
21786;SDS011;11055;50.870;4.316;2023-08-24T05:20:12;12.55;;;7.30;;
21786;SDS011;11055;50.870;4.316;2023-08-24T05:22:38;8.73;;;6.78;;
21786;SDS011;11055;50.870;4.316;2023-08-24T05:25:05;13.18;;;6.85;;
21786;SDS011;11055;50.870;4.316;2023-08-24T05:27:31;11.48;;;7.30;;
21786;SDS011;11055;50.870;4.316;2023-08-24T05:29:56;11.40;;;7.00;;
21786;SDS011;11055;50.870;4.316;2023-08-24T05:32:22;13.43;;;7.10;;
21786;SDS011;11055;50.870;4.316;2023-08-24T05:34:48;10.43;;;7.78;;
21786;SDS011;11055;50.870;4.316;2023-08-24T05:37:14;13.57;;;7.25;;
21786;SDS011;11055;50.870;4.316;2023-08-24T05:39:39;13.00;;;7.95;;
21786;SDS011;11055;50.870;4.316;2023-08-24T05:42:05;16.90;;;7.40;;
21786;SDS011;11055;50.870;4.316;2023-08-24T05:44:31;13.40;;;7.60;;
21786;SDS011;11055;50.870;4.316;2023-08-24T05:46:56;14.63;;;7.30;;
21786;SDS011;11055;50.870;4.316;2023-08-24T05:49:22;12.90;;;7.22;;
21786;SDS011;11055;50.870;4.316;2023-08-24T05:51:51;12.80;;;7.30;;
21786;SDS011;11055;50.870;4.316;2023-08-24T05:54:17;13.95;;;8.10;;
21786;SDS011;11055;50.870;4.316;2023-08-24T05:56:44;17.42;;;7.88;;
21786;SDS011;11055;50.870;4.316;2023-08-24T05:59:10;16.17;;;7.90;;
21786;SDS011;11055;50.870;4.316;2023-08-24T06:01:36;16.23;;;7.90;;
21786;SDS011;11055;50.870;4.316;2023-08-24T06:04:05;8.27;;;7.35;;
21786;SDS011;11055;50.870;4.316;2023-08-24T06:06:31;12.07;;;7.03;;
21786;SDS011;11055;50.870;4.316;2023-08-24T06:08:56;12.25;;;8.00;;
21786;SDS011;11055;50.870;4.316;2023-08-24T06:11:22;10.15;;;7.40;;
21786;SDS011;11055;50.870;4.316;2023-08-24T06:13:48;9.77;;;7.32;;
21786;SDS011;11055;50.870;4.316;2023-08-24T06:16:14;10.23;;;7.10;;
21786;SDS011;11055;50.870;4.316;2023-08-24T06:18:40;12.20;;;6.72;;
21786;SDS011;11055;50.870;4.316;2023-08-24T06:21:09;14.55;;;7.38;;
21786;SDS011;11055;50.870;4.316;2023-08-24T06:23:34;11.70;;;7.20;;
21786;SDS011;11055;50.870;4.316;2023-08-24T06:26:00;18.63;;;6.53;;
21786;SDS011;11055;50.870;4.316;2023-08-24T06:28:26;9.88;;;6.60;;
21786;SDS011;11055;50.870;4.316;2023-08-24T06:30:52;11.77;;;6.65;;
21786;SDS011;11055;50.870;4.316;2023-08-24T06:33:19;11.05;;;6.82;;
21786;SDS011;11055;50.870;4.316;2023-08-24T06:35:45;14.15;;;6.53;;
21786;SDS011;11055;50.870;4.316;2023-08-24T06:38:11;9.82;;;6.35;;
21786;SDS011;11055;50.870;4.316;2023-08-24T06:40:38;11.88;;;5.47;;
21786;SDS011;11055;50.870;4.316;2023-08-24T06:43:04;9.65;;;5.28;;
21786;SDS011;11055;50.870;4.316;2023-08-24T06:45:30;10.55;;;5.38;;
21786;SDS011;11055;50.870;4.316;2023-08-24T06:47:56;8.57;;;5.18;;
21786;SDS011;11055;50.870;4.316;2023-08-24T06:50:22;9.40;;;5.28;;
21786;SDS011;11055;50.870;4.316;2023-08-24T06:52:47;9.90;;;5.60;;
21786;SDS011;11055;50.870;4.316;2023-08-24T06:55:13;7.22;;;4.93;;
21786;SDS011;11055;50.870;4.316;2023-08-24T06:57:39;17.27;;;5.95;;
21786;SDS011;11055;50.870;4.316;2023-08-24T07:00:05;7.85;;;5.20;;
21786;SDS011;11055;50.870;4.316;2023-08-24T07:02:35;7.55;;;5.00;;
21786;SDS011;11055;50.870;4.316;2023-08-24T07:05:02;9.05;;;5.25;;
21786;SDS011;11055;50.870;4.316;2023-08-24T07:07:30;9.15;;;5.28;;
21786;SDS011;11055;50.870;4.316;2023-08-24T07:09:55;9.80;;;5.47;;
21786;SDS011;11055;50.870;4.316;2023-08-24T07:12:21;6.97;;;5.43;;
21786;SDS011;11055;50.870;4.316;2023-08-24T07:14:47;10.23;;;5.43;;
21786;SDS011;11055;50.870;4.316;2023-08-24T07:17:12;9.43;;;5.25;;
21786;SDS011;11055;50.870;4.316;2023-08-24T07:19:38;10.40;;;5.45;;
21786;SDS011;11055;50.870;4.316;2023-08-24T07:22:03;7.80;;;5.20;;
21786;SDS011;11055;50.870;4.316;2023-08-24T07:24:29;11.52;;;5.55;;
21786;SDS011;11055;50.870;4.316;2023-08-24T07:26:55;12.02;;;5.93;;
21786;SDS011;11055;50.870;4.316;2023-08-24T07:29:20;13.90;;;5.25;;
21786;SDS011;11055;50.870;4.316;2023-08-24T07:31:47;9.27;;;5.00;;
21786;SDS011;11055;50.870;4.316;2023-08-24T07:34:13;9.45;;;5.50;;
21786;SDS011;11055;50.870;4.316;2023-08-24T07:36:39;14.98;;;11.05;;
21786;SDS011;11055;50.870;4.316;2023-08-24T07:39:05;11.07;;;6.13;;
21786;SDS011;11055;50.870;4.316;2023-08-24T07:41:31;10.10;;;5.80;;
21786;SDS011;11055;50.870;4.316;2023-08-24T07:43:56;13.48;;;5.72;;
21786;SDS011;11055;50.870;4.316;2023-08-24T07:46:22;9.43;;;5.88;;
21786;SDS011;11055;50.870;4.316;2023-08-24T07:48:48;13.60;;;7.10;;
21786;SDS011;11055;50.870;4.316;2023-08-24T07:51:13;13.40;;;5.78;;
21786;SDS011;11055;50.870;4.316;2023-08-24T07:53:39;8.35;;;5.72;;
21786;SDS011;11055;50.870;4.316;2023-08-24T07:56:04;12.57;;;6.55;;
21786;SDS011;11055;50.870;4.316;2023-08-24T07:58:30;11.10;;;6.15;;
21786;SDS011;11055;50.870;4.316;2023-08-24T08:00:59;13.30;;;6.35;;
21786;SDS011;11055;50.870;4.316;2023-08-24T08:03:25;10.82;;;6.38;;
21786;SDS011;11055;50.870;4.316;2023-08-24T08:05:51;9.15;;;6.00;;
21786;SDS011;11055;50.870;4.316;2023-08-24T08:08:16;14.30;;;6.30;;
21786;SDS011;11055;50.870;4.316;2023-08-24T08:10:42;11.63;;;5.75;;
21786;SDS011;11055;50.870;4.316;2023-08-24T08:13:08;12.38;;;6.00;;
21786;SDS011;11055;50.870;4.316;2023-08-24T08:15:37;15.07;;;6.32;;
21786;SDS011;11055;50.870;4.316;2023-08-24T08:18:04;12.98;;;5.75;;
21786;SDS011;11055;50.870;4.316;2023-08-24T08:20:30;11.13;;;6.60;;
21786;SDS011;11055;50.870;4.316;2023-08-24T08:22:56;8.60;;;6.63;;
21786;SDS011;11055;50.870;4.316;2023-08-24T08:25:22;8.88;;;6.25;;
21786;SDS011;11055;50.870;4.316;2023-08-24T08:27:48;13.23;;;6.55;;
21786;SDS011;11055;50.870;4.316;2023-08-24T08:30:14;15.35;;;6.70;;
21786;SDS011;11055;50.870;4.316;2023-08-24T08:32:40;12.40;;;6.70;;
21786;SDS011;11055;50.870;4.316;2023-08-24T08:35:06;9.18;;;6.55;;
21786;SDS011;11055;50.870;4.316;2023-08-24T08:37:33;12.00;;;6.65;;
21786;SDS011;11055;50.870;4.316;2023-08-24T08:39:59;11.43;;;7.25;;
21786;SDS011;11055;50.870;4.316;2023-08-24T08:42:24;11.48;;;7.13;;
21786;SDS011;11055;50.870;4.316;2023-08-24T08:44:50;13.05;;;7.15;;
21786;SDS011;11055;50.870;4.316;2023-08-24T08:47:19;10.80;;;7.45;;
21786;SDS011;11055;50.870;4.316;2023-08-24T08:49:48;16.38;;;6.97;;
21786;SDS011;11055;50.870;4.316;2023-08-24T08:52:14;14.88;;;7.57;;
21786;SDS011;11055;50.870;4.316;2023-08-24T08:54:43;14.50;;;7.07;;
21786;SDS011;11055;50.870;4.316;2023-08-24T08:57:09;15.30;;;7.38;;
21786;SDS011;11055;50.870;4.316;2023-08-24T08:59:35;19.65;;;8.40;;
21786;SDS011;11055;50.870;4.316;2023-08-24T09:02:02;15.77;;;7.18;;
21786;SDS011;11055;50.870;4.316;2023-08-24T09:04:31;13.70;;;7.35;;
21786;SDS011;11055;50.870;4.316;2023-08-24T09:06:58;16.45;;;8.07;;
21786;SDS011;11055;50.870;4.316;2023-08-24T09:09:29;9.70;;;7.13;;
21786;SDS011;11055;50.870;4.316;2023-08-24T09:11:58;14.10;;;6.57;;
21786;SDS011;11055;50.870;4.316;2023-08-24T09:14:24;13.98;;;7.82;;
21786;SDS011;11055;50.870;4.316;2023-08-24T09:16:50;11.40;;;7.25;;
21786;SDS011;11055;50.870;4.316;2023-08-24T09:19:16;17.48;;;7.40;;
21786;SDS011;11055;50.870;4.316;2023-08-24T09:21:41;15.65;;;6.63;;
21786;SDS011;11055;50.870;4.316;2023-08-24T09:24:07;18.35;;;7.72;;
21786;SDS011;11055;50.870;4.316;2023-08-24T09:26:35;15.68;;;7.82;;
21786;SDS011;11055;50.870;4.316;2023-08-24T09:29:14;15.45;;;7.97;;
21786;SDS011;11055;50.870;4.316;2023-08-24T09:31:41;15.50;;;7.40;;
21786;SDS011;11055;50.870;4.316;2023-08-24T09:34:10;14.07;;;7.55;;
21786;SDS011;11055;50.870;4.316;2023-08-24T09:36:37;12.50;;;8.70;;
21786;SDS011;11055;50.870;4.316;2023-08-24T09:39:04;12.32;;;8.60;;
21786;SDS011;11055;50.870;4.316;2023-08-24T09:41:37;12.32;;;7.88;;
21786;SDS011;11055;50.870;4.316;2023-08-24T09:44:04;12.02;;;7.43;;
21786;SDS011;11055;50.870;4.316;2023-08-24T09:46:30;13.15;;;7.03;;
21786;SDS011;11055;50.870;4.316;2023-08-24T09:48:56;10.93;;;7.40;;
21786;SDS011;11055;50.870;4.316;2023-08-24T09:51:24;10.63;;;7.05;;
21786;SDS011;11055;50.870;4.316;2023-08-24T09:53:51;10.80;;;6.50;;
21786;SDS011;11055;50.870;4.316;2023-08-24T09:56:21;7.72;;;5.82;;
21786;SDS011;11055;50.870;4.316;2023-08-24T09:58:48;9.57;;;6.03;;
21786;SDS011;11055;50.870;4.316;2023-08-24T10:01:16;8.00;;;6.10;;
21786;SDS011;11055;50.870;4.316;2023-08-24T10:03:43;11.75;;;6.45;;
21786;SDS011;11055;50.870;4.316;2023-08-24T10:06:11;10.20;;;7.88;;
21786;SDS011;11055;50.870;4.316;2023-08-24T10:08:39;10.48;;;6.22;;
21786;SDS011;11055;50.870;4.316;2023-08-24T10:11:19;9.20;;;5.25;;
21786;SDS011;11055;50.870;4.316;2023-08-24T10:13:58;10.48;;;5.93;;
21786;SDS011;11055;50.870;4.316;2023-08-24T10:16:32;10.40;;;6.00;;
21786;SDS011;11055;50.870;4.316;2023-08-24T10:19:00;8.10;;;5.32;;
21786;SDS011;11055;50.870;4.316;2023-08-24T10:21:28;12.15;;;6.82;;
21786;SDS011;11055;50.870;4.316;2023-08-24T10:23:57;9.13;;;5.35;;
21786;SDS011;11055;50.870;4.316;2023-08-24T10:26:24;13.93;;;5.83;;
21786;SDS011;11055;50.870;4.316;2023-08-24T10:28:51;12.23;;;6.57;;
21786;SDS011;11055;50.870;4.316;2023-08-24T10:31:17;9.13;;;6.25;;
21786;SDS011;11055;50.870;4.316;2023-08-24T10:33:45;10.80;;;6.30;;
21786;SDS011;11055;50.870;4.316;2023-08-24T10:36:15;14.98;;;7.72;;
21786;SDS011;11055;50.870;4.316;2023-08-24T10:38:42;11.57;;;6.80;;
21786;SDS011;11055;50.870;4.316;2023-08-24T10:41:08;15.60;;;7.28;;
21786;SDS011;11055;50.870;4.316;2023-08-24T10:43:35;11.30;;;6.57;;
21786;SDS011;11055;50.870;4.316;2023-08-24T10:46:04;13.18;;;7.07;;
21786;SDS011;11055;50.870;4.316;2023-08-24T10:48:58;9.70;;;7.18;;
21786;SDS011;11055;50.870;4.316;2023-08-24T10:51:24;11.05;;;7.30;;
21786;SDS011;11055;50.870;4.316;2023-08-24T10:53:55;11.95;;;7.22;;
21786;SDS011;11055;50.870;4.316;2023-08-24T10:56:36;7.97;;;6.88;;
21786;SDS011;11055;50.870;4.316;2023-08-24T10:59:12;10.60;;;6.32;;
21786;SDS011;11055;50.870;4.316;2023-08-24T11:01:43;12.75;;;6.78;;
21786;SDS011;11055;50.870;4.316;2023-08-24T11:04:19;11.25;;;6.80;;
21786;SDS011;11055;50.870;4.316;2023-08-24T11:09:23;12.35;;;6.03;;
21786;SDS011;11055;50.870;4.316;2023-08-24T11:12:02;9.98;;;5.63;;
21786;SDS011;11055;50.870;4.316;2023-08-24T11:14:30;8.23;;;5.78;;
21786;SDS011;11055;50.870;4.316;2023-08-24T11:16:58;7.93;;;5.90;;
21786;SDS011;11055;50.870;4.316;2023-08-24T11:19:49;10.02;;;5.55;;
21786;SDS011;11055;50.870;4.316;2023-08-24T11:22:19;5.72;;;4.10;;
21786;SDS011;11055;50.870;4.316;2023-08-24T11:24:45;7.38;;;4.85;;
21786;SDS011;11055;50.870;4.316;2023-08-24T11:27:10;6.32;;;5.28;;
21786;SDS011;11055;50.870;4.316;2023-08-24T11:29:36;6.88;;;5.35;;
21786;SDS011;11055;50.870;4.316;2023-08-24T11:32:02;8.88;;;5.20;;
21786;SDS011;11055;50.870;4.316;2023-08-24T11:34:28;8.77;;;5.10;;
21786;SDS011;11055;50.870;4.316;2023-08-24T11:36:57;7.13;;;4.68;;
21786;SDS011;11055;50.870;4.316;2023-08-24T11:39:23;7.68;;;4.65;;
21786;SDS011;11055;50.870;4.316;2023-08-24T11:42:02;6.47;;;5.22;;
21786;SDS011;11055;50.870;4.316;2023-08-24T11:44:30;8.75;;;4.90;;
21786;SDS011;11055;50.870;4.316;2023-08-24T11:47:14;8.43;;;5.18;;
21786;SDS011;11055;50.870;4.316;2023-08-24T11:49:43;8.23;;;5.20;;
21786;SDS011;11055;50.870;4.316;2023-08-24T11:52:09;6.60;;;5.15;;
21786;SDS011;11055;50.870;4.316;2023-08-24T11:54:38;9.00;;;5.28;;
21786;SDS011;11055;50.870;4.316;2023-08-24T11:57:07;7.97;;;5.63;;
21786;SDS011;11055;50.870;4.316;2023-08-24T11:59:36;6.72;;;5.38;;
21786;SDS011;11055;50.870;4.316;2023-08-24T12:02:03;9.35;;;4.93;;
21786;SDS011;11055;50.870;4.316;2023-08-24T12:04:40;6.55;;;5.60;;
21786;SDS011;11055;50.870;4.316;2023-08-24T12:07:13;8.60;;;5.25;;
21786;SDS011;11055;50.870;4.316;2023-08-24T12:09:42;12.52;;;6.05;;
21786;SDS011;11055;50.870;4.316;2023-08-24T12:12:13;7.97;;;6.00;;
21786;SDS011;11055;50.870;4.316;2023-08-24T12:14:43;6.93;;;5.47;;
21786;SDS011;11055;50.870;4.316;2023-08-24T12:17:09;8.20;;;5.75;;
21786;SDS011;11055;50.870;4.316;2023-08-24T12:19:35;8.20;;;5.70;;
21786;SDS011;11055;50.870;4.316;2023-08-24T12:22:01;7.03;;;5.95;;
21786;SDS011;11055;50.870;4.316;2023-08-24T12:24:27;9.38;;;6.35;;
21786;SDS011;11055;50.870;4.316;2023-08-24T12:26:56;10.02;;;5.75;;
21786;SDS011;11055;50.870;4.316;2023-08-24T12:29:23;10.23;;;6.18;;
21786;SDS011;11055;50.870;4.316;2023-08-24T12:31:48;7.22;;;5.47;;
21786;SDS011;11055;50.870;4.316;2023-08-24T12:34:14;6.22;;;5.38;;
21786;SDS011;11055;50.870;4.316;2023-08-24T12:36:41;9.23;;;5.07;;
21786;SDS011;11055;50.870;4.316;2023-08-24T12:39:10;8.23;;;5.78;;
21786;SDS011;11055;50.870;4.316;2023-08-24T12:41:38;9.05;;;5.90;;
21786;SDS011;11055;50.870;4.316;2023-08-24T12:44:03;6.30;;;5.15;;
21786;SDS011;11055;50.870;4.316;2023-08-24T12:46:35;6.05;;;4.57;;
21786;SDS011;11055;50.870;4.316;2023-08-24T12:49:02;6.95;;;4.95;;
21786;SDS011;11055;50.870;4.316;2023-08-24T12:51:28;5.97;;;4.53;;
21786;SDS011;11055;50.870;4.316;2023-08-24T12:53:53;5.82;;;4.60;;
21786;SDS011;11055;50.870;4.316;2023-08-24T12:56:19;6.82;;;4.80;;
21786;SDS011;11055;50.870;4.316;2023-08-24T12:58:45;8.35;;;4.55;;
21786;SDS011;11055;50.870;4.316;2023-08-24T13:01:11;6.80;;;4.20;;
21786;SDS011;11055;50.870;4.316;2023-08-24T13:03:37;5.68;;;3.90;;
21786;SDS011;11055;50.870;4.316;2023-08-24T13:06:04;8.45;;;4.00;;
21786;SDS011;11055;50.870;4.316;2023-08-24T13:08:30;4.10;;;3.20;;
21786;SDS011;11055;50.870;4.316;2023-08-24T13:10:56;5.65;;;3.30;;
21786;SDS011;11055;50.870;4.316;2023-08-24T13:13:22;7.75;;;3.65;;
21786;SDS011;11055;50.870;4.316;2023-08-24T13:15:51;8.55;;;3.67;;
21786;SDS011;11055;50.870;4.316;2023-08-24T13:18:17;4.72;;;2.92;;
21786;SDS011;11055;50.870;4.316;2023-08-24T13:20:43;4.40;;;3.33;;
21786;SDS011;11055;50.870;4.316;2023-08-24T13:23:08;5.57;;;2.78;;
21786;SDS011;11055;50.870;4.316;2023-08-24T13:25:34;5.50;;;3.35;;
21786;SDS011;11055;50.870;4.316;2023-08-24T13:28:00;4.18;;;2.67;;
21786;SDS011;11055;50.870;4.316;2023-08-24T13:30:26;5.00;;;3.08;;
21786;SDS011;11055;50.870;4.316;2023-08-24T13:32:52;5.75;;;2.90;;
21786;SDS011;11055;50.870;4.316;2023-08-24T13:35:18;7.72;;;3.30;;
21786;SDS011;11055;50.870;4.316;2023-08-24T13:37:44;7.72;;;3.10;;
21786;SDS011;11055;50.870;4.316;2023-08-24T13:40:12;8.07;;;3.35;;
21786;SDS011;11055;50.870;4.316;2023-08-24T13:42:38;6.57;;;3.00;;
21786;SDS011;11055;50.870;4.316;2023-08-24T13:45:04;6.40;;;3.42;;
21786;SDS011;11055;50.870;4.316;2023-08-24T13:47:29;8.45;;;3.00;;
21786;SDS011;11055;50.870;4.316;2023-08-24T13:49:55;8.00;;;3.50;;
21786;SDS011;11055;50.870;4.316;2023-08-24T13:52:21;5.60;;;3.08;;
21786;SDS011;11055;50.870;4.316;2023-08-24T13:54:46;5.85;;;3.25;;
21786;SDS011;11055;50.870;4.316;2023-08-24T13:57:12;6.25;;;3.55;;
21786;SDS011;11055;50.870;4.316;2023-08-24T13:59:38;5.75;;;2.80;;
21786;SDS011;11055;50.870;4.316;2023-08-24T14:02:05;5.07;;;2.83;;
21786;SDS011;11055;50.870;4.316;2023-08-24T14:04:31;4.70;;;2.60;;
21786;SDS011;11055;50.870;4.316;2023-08-24T14:06:57;6.55;;;2.90;;
21786;SDS011;11055;50.870;4.316;2023-08-24T14:09:22;6.47;;;2.30;;
21786;SDS011;11055;50.870;4.316;2023-08-24T14:11:48;6.88;;;2.92;;
21786;SDS011;11055;50.870;4.316;2023-08-24T14:14:14;6.07;;;2.80;;
21786;SDS011;11055;50.870;4.316;2023-08-24T14:16:40;4.70;;;3.40;;
21786;SDS011;11055;50.870;4.316;2023-08-24T14:19:05;5.20;;;2.65;;
21786;SDS011;11055;50.870;4.316;2023-08-24T14:21:31;4.47;;;3.00;;
21786;SDS011;11055;50.870;4.316;2023-08-24T14:23:57;3.92;;;2.70;;
21786;SDS011;11055;50.870;4.316;2023-08-24T14:26:23;4.35;;;2.70;;
21786;SDS011;11055;50.870;4.316;2023-08-24T14:28:53;2.63;;;2.10;;
21786;SDS011;11055;50.870;4.316;2023-08-24T14:31:20;5.00;;;2.60;;
21786;SDS011;11055;50.870;4.316;2023-08-24T14:33:47;5.55;;;2.47;;
21786;SDS011;11055;50.870;4.316;2023-08-24T14:36:12;4.43;;;2.40;;
21786;SDS011;11055;50.870;4.316;2023-08-24T14:38:39;4.95;;;2.63;;
21786;SDS011;11055;50.870;4.316;2023-08-24T14:41:11;4.80;;;2.88;;
21786;SDS011;11055;50.870;4.316;2023-08-24T14:43:38;5.17;;;2.50;;
21786;SDS011;11055;50.870;4.316;2023-08-24T14:46:04;5.68;;;2.70;;
21786;SDS011;11055;50.870;4.316;2023-08-24T14:48:30;3.72;;;2.38;;
21786;SDS011;11055;50.870;4.316;2023-08-24T14:50:56;4.10;;;2.10;;